Western Trident — 3FE09 — position and weather

sailwx.info

Track history (hours):
 
Tides and Currents Weather Stations Pressure Air Temp Water Temp Dewpoint Dewpoint Depression Visibility Wind Speed Wind Dir Waves Ship Positions

Western Trident

Last reported at 2014-Oct-13 05:32 UTC. Time now 2014-Oct-24 11:19 UTC.
Position N 72°17' E 018°60'.
Warning: this ship's position is 11 days out of date.

Length 95 m; draft 8.4 m.

Type: Other ship. MMSI: 357269000.

Date/timePositionNaut miles runAvg speedWind from/ knotsBaromVisibWave heightAir tempDewpointWater temp
2014-Oct-13 05:32N 72°17' E 018°60'2 2.0
2014-Oct-13 04:32N 72°18' E 019°04'2 1.8
2014-Oct-13 03:32N 72°19' E 019°08'2 2.0
2014-Oct-13 02:32N 72°21' E 019°13'2 2.2
2014-Oct-13 01:32N 72°22' E 019°18'  
2014-Oct-03 17:18N 72°47' E 022°60'10 4.4
2014-Oct-03 15:06N 72°39' E 023°21'2 4.3
2014-Oct-03 14:33N 72°38' E 023°16'4 4.4
2014-Oct-03 13:33N 72°37' E 023°01'5 4.5
2014-Oct-03 12:33N 72°38' E 022°46'5 4.5
2014-Oct-03 11:33N 72°38' E 022°31'5 4.7
2014-Oct-03 10:33N 72°38' E 022°15'  
Track history (hours):
 
Tides and Currents Weather Stations Pressure Air Temp Water Temp Dewpoint Dewpoint Depression Visibility Wind Speed Wind Dir Waves Ship Positions

Western Trident

Last reported at 2014-Oct-13 05:32 UTC. Time now 2014-Oct-24 11:19 UTC.
Position N 72°17' E 018°60'.
Warning: this ship's position is 11 days out of date.

Length 95 m; draft 8.4 m.

Type: Other ship. MMSI: 357269000.

Date/timePositionNaut miles runAvg speedWind from/ knotsBaromVisibWave heightAir tempDewpointWater temp
2014-Oct-13 05:32N 72°17' E 018°60'2 2.0
2014-Oct-13 04:32N 72°18' E 019°04'2 1.8
2014-Oct-13 03:32N 72°19' E 019°08'2 2.0
2014-Oct-13 02:32N 72°21' E 019°13'2 2.2
2014-Oct-13 01:32N 72°22' E 019°18'  
2014-Oct-03 17:18N 72°47' E 022°60'10 4.4
2014-Oct-03 15:06N 72°39' E 023°21'2 4.3
2014-Oct-03 14:33N 72°38' E 023°16'4 4.4
2014-Oct-03 13:33N 72°37' E 023°01'5 4.5
2014-Oct-03 12:33N 72°38' E 022°46'5 4.5
2014-Oct-03 11:33N 72°38' E 022°31'5 4.7
2014-Oct-03 10:33N 72°38' E 022°15'  

Dump ship's entire track history